Terminal Aerodrome Forecast
Issued by NWS Pocatello, ID

Home | Current Version | Previous Version | Text Only | Print | Product List | Glossary On
Versions: 1 2 3 4 5 6 7 8 9 10 11 12
000
FTUS45 KPIH 252333
TAFBYI
TAF
KBYI 252333Z 2600/2624 28012G18KT P6SM VCSH SCT025 BKN040 OVC060
     FM260500 27015G25KT P6SM -SHRA SCT015 BKN025 OVC035
     FM260900 27018G28KT P6SM VCSH SCT008 BKN050 OVC120=

USA.gov is the U.S. government's official web portal to all federal, state and local government web resources and services.